Sichem Hawk — 9HSE9 — position and weather

sailwx.info

Track history (hours):
 
Tides and Currents Weather Stations Pressure Air Temp Water Temp Dewpoint Dewpoint Depression Visibility Wind Speed Wind Dir Waves Ship Positions

Sichem Hawk

Last reported at 2014-Jul-18 11:05 UTC. Time now 2014-Jul-24 13:07 UTC.
Position N 35°09' W 030°53'.

Length 170 m; draft 9.2 m.

Type: Ship. MMSI: 249445000.

Date/timePositionNaut miles runAvg speedWind from/ knotsBaromVisibWave heightAir tempDewpointWater temp
2014-Jul-18 11:05N 35°09' W 030°53'1013.9
2014-Jul-18 10:21N 35°09' W 030°40'16013.4
2014-Jul-17 22:29N 35°05' W 027°25'1313.4
2014-Jul-17 21:32N 35°04' W 027°10'1313.1
2014-Jul-17 20:30N 35°03' W 026°54'1413.0
2014-Jul-17 19:27N 35°02' W 026°37'1213.5
2014-Jul-17 18:33N 35°01' W 026°22'9813.4
2014-Jul-17 11:18N 34°55' W 024°23'1013.4
2014-Jul-17 10:33N 34°54' W 024°11'1813.7
2014-Jul-17 09:12N 34°52' W 023°49'1513.5
2014-Jul-17 08:06N 34°51' W 023°31'45014.2
2014-Jul-16 00:27N 34°50' W 014°22'1714.0
2014-Jul-15 23:15N 34°53' W 014°02'2413.9
2014-Jul-15 21:33N 34°57' W 013°33'1414.2
2014-Jul-15 20:33N 34°59' W 013°16'1414.5
2014-Jul-15 19:33N 35°02' W 012°59'3014.6
2014-Jul-15 17:32N 35°06' W 012°23'1414.1
2014-Jul-15 16:33N 35°09' W 012°07'11113.6
2014-Jul-15 08:24N 35°27' W 009°53'1713.8
2014-Jul-15 07:09N 35°30' W 009°31'3613.8
2014-Jul-15 04:33N 35°36' W 008°48'1513.6
2014-Jul-15 03:27N 35°39' W 008°30'1213.7
2014-Jul-15 02:33N 35°41' W 008°15'1413.5
2014-Jul-15 01:33N 35°43' W 007°58'1413.6
2014-Jul-15 00:33N 35°45' W 007°42'1413.7
2014-Jul-14 23:33N 35°47' W 007°25'1413.7
2014-Jul-14 22:33N 35°50' W 007°09'1413.7
2014-Jul-14 21:33N 35°52' W 006°52'1413.8
2014-Jul-14 20:33N 35°54' W 006°35'1313.4
2014-Jul-14 19:33N 35°56' W 006°19'1511.7
2014-Jul-14 18:17N 35°57' W 006°01'2210.5
2014-Jul-14 16:13N 35°58' W 005°34'711.2
2014-Jul-14 15:34N 36°00' W 005°25'9 9.3
2014-Jul-14 14:34N 36°09' W 005°23'1 0.6
2014-Jul-14 13:34N 36°10' W 005°23'163 7.2
2014-Jul-13 15:06N 36°31' W 002°03'8913.3
2014-Jul-13 08:25N 37°30' W 000°39'1213.5
2014-Jul-13 07:32N 37°39' W 000°29'1913.7
2014-Jul-13 06:10N 37°55' W 000°16'12014.0
2014-Jul-12 21:33N 39°44' E 000°49'1413.7
2014-Jul-12 20:33N 39°57' E 000°54'1413.7
2014-Jul-12 19:33N 40°10' E 000°58'1312.9
2014-Jul-12 18:33N 40°23' E 001°01'1313.1
2014-Jul-12 17:33N 40°36' E 001°05'1313.2
2014-Jul-12 16:33N 40°49' E 001°08'17 0.4
2014-Jul-10 19:33N 41°05' E 001°13'2 1.6
2014-Jul-10 18:33N 41°04' E 001°14'2 1.8
2014-Jul-10 17:31N 41°05' E 001°16'0 0.0
2014-Jul-10 16:19N 41°05' E 001°16'0 0.0
2014-Jul-10 15:31N 41°05' E 001°16'0 0.0
2014-Jul-10 13:25N 41°05' E 001°16'0 0.0
2014-Jul-09 19:31N 41°05' E 001°16'0 0.0
2014-Jul-09 18:10N 41°05' E 001°16'0 0.0
2014-Jul-09 17:31N 41°05' E 001°16'0 0.0
2014-Jul-09 16:31N 41°05' E 001°16'0 0.0
2014-Jul-09 01:19N 41°05' E 001°16'0 0.0
2014-Jul-08 21:31N 41°05' E 001°16'0 0.0
2014-Jul-08 20:26N 41°05' E 001°16'0 0.0
2014-Jul-08 19:31N 41°05' E 001°16'0 0.0
2014-Jul-08 17:13N 41°05' E 001°16'0 0.0
2014-Jul-08 16:25N 41°05' E 001°16'0 0.0
2014-Jul-08 15:25N 41°05' E 001°16'0 0.0
2014-Jul-08 14:25N 41°05' E 001°16'0 0.0
2014-Jul-08 13:13N 41°05' E 001°16'  
Track history (hours):
 
Tides and Currents Weather Stations Pressure Air Temp Water Temp Dewpoint Dewpoint Depression Visibility Wind Speed Wind Dir Waves Ship Positions

Sichem Hawk

Last reported at 2014-Jul-18 11:05 UTC. Time now 2014-Jul-24 13:07 UTC.
Position N 35°09' W 030°53'.

Length 170 m; draft 9.2 m.

Type: Ship. MMSI: 249445000.

Date/timePositionNaut miles runAvg speedWind from/ knotsBaromVisibWave heightAir tempDewpointWater temp
2014-Jul-18 11:05N 35°09' W 030°53'1013.9
2014-Jul-18 10:21N 35°09' W 030°40'16013.4
2014-Jul-17 22:29N 35°05' W 027°25'1313.4
2014-Jul-17 21:32N 35°04' W 027°10'1313.1
2014-Jul-17 20:30N 35°03' W 026°54'1413.0
2014-Jul-17 19:27N 35°02' W 026°37'1213.5
2014-Jul-17 18:33N 35°01' W 026°22'9813.4
2014-Jul-17 11:18N 34°55' W 024°23'1013.4
2014-Jul-17 10:33N 34°54' W 024°11'1813.7
2014-Jul-17 09:12N 34°52' W 023°49'1513.5
2014-Jul-17 08:06N 34°51' W 023°31'45014.2
2014-Jul-16 00:27N 34°50' W 014°22'1714.0
2014-Jul-15 23:15N 34°53' W 014°02'2413.9
2014-Jul-15 21:33N 34°57' W 013°33'1414.2
2014-Jul-15 20:33N 34°59' W 013°16'1414.5
2014-Jul-15 19:33N 35°02' W 012°59'3014.6
2014-Jul-15 17:32N 35°06' W 012°23'1414.1
2014-Jul-15 16:33N 35°09' W 012°07'11113.6
2014-Jul-15 08:24N 35°27' W 009°53'1713.8
2014-Jul-15 07:09N 35°30' W 009°31'3613.8
2014-Jul-15 04:33N 35°36' W 008°48'1513.6
2014-Jul-15 03:27N 35°39' W 008°30'1213.7
2014-Jul-15 02:33N 35°41' W 008°15'1413.5
2014-Jul-15 01:33N 35°43' W 007°58'1413.6
2014-Jul-15 00:33N 35°45' W 007°42'1413.7
2014-Jul-14 23:33N 35°47' W 007°25'1413.7
2014-Jul-14 22:33N 35°50' W 007°09'1413.7
2014-Jul-14 21:33N 35°52' W 006°52'1413.8
2014-Jul-14 20:33N 35°54' W 006°35'1313.4
2014-Jul-14 19:33N 35°56' W 006°19'1511.7
2014-Jul-14 18:17N 35°57' W 006°01'2210.5
2014-Jul-14 16:13N 35°58' W 005°34'711.2
2014-Jul-14 15:34N 36°00' W 005°25'9 9.3
2014-Jul-14 14:34N 36°09' W 005°23'1 0.6
2014-Jul-14 13:34N 36°10' W 005°23'163 7.2
2014-Jul-13 15:06N 36°31' W 002°03'8913.3
2014-Jul-13 08:25N 37°30' W 000°39'1213.5
2014-Jul-13 07:32N 37°39' W 000°29'1913.7
2014-Jul-13 06:10N 37°55' W 000°16'12014.0
2014-Jul-12 21:33N 39°44' E 000°49'1413.7
2014-Jul-12 20:33N 39°57' E 000°54'1413.7
2014-Jul-12 19:33N 40°10' E 000°58'1312.9
2014-Jul-12 18:33N 40°23' E 001°01'1313.1
2014-Jul-12 17:33N 40°36' E 001°05'1313.2
2014-Jul-12 16:33N 40°49' E 001°08'17 0.4
2014-Jul-10 19:33N 41°05' E 001°13'2 1.6
2014-Jul-10 18:33N 41°04' E 001°14'2 1.8
2014-Jul-10 17:31N 41°05' E 001°16'0 0.0
2014-Jul-10 16:19N 41°05' E 001°16'0 0.0
2014-Jul-10 15:31N 41°05' E 001°16'0 0.0
2014-Jul-10 13:25N 41°05' E 001°16'0 0.0
2014-Jul-09 19:31N 41°05' E 001°16'0 0.0
2014-Jul-09 18:10N 41°05' E 001°16'0 0.0
2014-Jul-09 17:31N 41°05' E 001°16'0 0.0
2014-Jul-09 16:31N 41°05' E 001°16'0 0.0
2014-Jul-09 01:19N 41°05' E 001°16'0 0.0
2014-Jul-08 21:31N 41°05' E 001°16'0 0.0
2014-Jul-08 20:26N 41°05' E 001°16'0 0.0
2014-Jul-08 19:31N 41°05' E 001°16'0 0.0
2014-Jul-08 17:13N 41°05' E 001°16'0 0.0
2014-Jul-08 16:25N 41°05' E 001°16'0 0.0
2014-Jul-08 15:25N 41°05' E 001°16'0 0.0
2014-Jul-08 14:25N 41°05' E 001°16'0 0.0
2014-Jul-08 13:13N 41°05' E 001°16'  

Dump ship's entire track history